Overview Statistics Trail Chart Weather Telemetry Raw packets
 

This is the latest recevied weather packets stored in our database for station/object DL9RAN-11. If no packets are shown the sender has not sent any weather packets the latest 10 day(s).

<< 29 30 31 32 33 34 35 >>
Time Temp. Humidity Pressure Rain* Wind** Luminosity Snow
1788177549 25° C 63% 1021.1 hPa - - - -
1788177249 25° C 63% 1021.1 hPa - - - -
1788176949 25° C 63% 1020.9 hPa - - - -
1788176648 24.44° C 63% 1020.9 hPa - - - -
1788176003 24.44° C 64% 1020.7 hPa - - - -
1788175703 24.44° C 64% 1020.7 hPa - - - -
1788174934 23.89° C 67% 1020.9 hPa - - - -
1788174426 23.89° C 67% 1020.9 hPa - - - -
1788174063 23.89° C 68% 1020.8 hPa - - - -
1788173686 23.33° C 68% 1020.8 hPa - - - -
1788172903 23.33° C 70% 1020.8 hPa - - - -
1788172602 23.33° C 70% 1020.8 hPa - - - -
1788172302 23.33° C 70% 1020.8 hPa - - - -
1788171864 22.78° C 70% 1021 hPa - - - -
1788171564 22.78° C 70% 1021.1 hPa - - - -
1788170395 24.44° C 68% 1020.9 hPa - - - -
1788169158 23.33° C 73% 1020.9 hPa - - - -
1788168858 22.78° C 73% 1020.9 hPa - - - -
1788168567 22.78° C 74% 1020.9 hPa - - - -
1788168257 22.78° C 74% 1020.9 hPa - - - -
1788167957 22.78° C 75% 1020.9 hPa - - - -
1788167518 22.22° C 76% 1020.6 hPa - - - -
1788167148 22.22° C 77% 1020.6 hPa - - - -
1788166709 21.67° C 78% 1020.5 hPa - - - -
1788166408 21.67° C 78% 1020.5 hPa - - - -

* Rain since midnight (hover to see other rain measurements)
** Current wind speed in m/s (hover to see current wind gust speed)